sensor_id;sensor_type;location;lat;lon;timestamp;pressure;altitude;pressure_sealevel;temperature;humidity
11001;BME280;5553;48.506;8.870;2023-02-14T00:01:28;98338.09;;;-2.92;100.00
11001;BME280;5553;48.506;8.870;2023-02-14T00:03:56;98338.19;;;-2.94;100.00
11001;BME280;5553;48.506;8.870;2023-02-14T00:06:26;98333.91;;;-2.95;100.00
11001;BME280;5553;48.506;8.870;2023-02-14T00:08:56;98335.75;;;-2.98;100.00
11001;BME280;5553;48.506;8.870;2023-02-14T00:11:24;98342.91;;;-3.05;100.00
11001;BME280;5553;48.506;8.870;2023-02-14T00:13:52;98335.97;;;-3.03;100.00
11001;BME280;5553;48.506;8.870;2023-02-14T00:16:41;98332.22;;;-2.96;100.00
11001;BME280;5553;48.506;8.870;2023-02-14T00:19:11;98334.88;;;-2.97;100.00
11001;BME280;5553;48.506;8.870;2023-02-14T00:21:40;98324.81;;;-2.83;100.00
11001;BME280;5553;48.506;8.870;2023-02-14T00:24:10;98331.38;;;-2.96;100.00
11001;BME280;5553;48.506;8.870;2023-02-14T00:26:39;98321.88;;;-2.96;100.00
11001;BME280;5553;48.506;8.870;2023-02-14T00:29:10;98313.22;;;-2.95;100.00
11001;BME280;5553;48.506;8.870;2023-02-14T00:31:42;98313.34;;;-2.98;100.00
11001;BME280;5553;48.506;8.870;2023-02-14T00:34:10;98312.44;;;-3.17;100.00
11001;BME280;5553;48.506;8.870;2023-02-14T00:36:39;98309.19;;;-3.22;100.00
11001;BME280;5553;48.506;8.870;2023-02-14T00:39:08;98307.53;;;-3.23;100.00
11001;BME280;5553;48.506;8.870;2023-02-14T00:41:37;98306.81;;;-3.27;100.00
11001;BME280;5553;48.506;8.870;2023-02-14T00:44:06;98303.91;;;-3.19;100.00
11001;BME280;5553;48.506;8.870;2023-02-14T00:46:35;98300.63;;;-3.23;100.00
11001;BME280;5553;48.506;8.870;2023-02-14T00:49:06;98299.50;;;-3.38;100.00
11001;BME280;5553;48.506;8.870;2023-02-14T00:51:34;98286.72;;;-3.41;100.00
11001;BME280;5553;48.506;8.870;2023-02-14T00:54:03;98289.34;;;-3.42;100.00
11001;BME280;5553;48.506;8.870;2023-02-14T00:56:32;98282.31;;;-3.39;100.00
11001;BME280;5553;48.506;8.870;2023-02-14T00:59:00;98284.84;;;-3.37;100.00
11001;BME280;5553;48.506;8.870;2023-02-14T01:01:29;98290.50;;;-3.27;100.00
11001;BME280;5553;48.506;8.870;2023-02-14T01:03:57;98294.94;;;-3.31;100.00
11001;BME280;5553;48.506;8.870;2023-02-14T01:06:28;98292.16;;;-3.26;100.00
11001;BME280;5553;48.506;8.870;2023-02-14T01:08:56;98293.72;;;-3.22;100.00
11001;BME280;5553;48.506;8.870;2023-02-14T01:11:25;98292.09;;;-3.25;100.00
11001;BME280;5553;48.506;8.870;2023-02-14T01:13:55;98291.00;;;-3.19;100.00
11001;BME280;5553;48.506;8.870;2023-02-14T01:16:25;98290.63;;;-3.30;100.00
11001;BME280;5553;48.506;8.870;2023-02-14T01:18:54;98290.53;;;-3.29;100.00
11001;BME280;5553;48.506;8.870;2023-02-14T01:21:25;98283.69;;;-3.30;100.00
11001;BME280;5553;48.506;8.870;2023-02-14T01:23:58;98276.28;;;-3.38;100.00
11001;BME280;5553;48.506;8.870;2023-02-14T01:26:27;98281.00;;;-3.27;100.00
11001;BME280;5553;48.506;8.870;2023-02-14T01:28:56;98277.38;;;-3.23;100.00
11001;BME280;5553;48.506;8.870;2023-02-14T01:31:27;98286.09;;;-3.25;100.00
11001;BME280;5553;48.506;8.870;2023-02-14T01:33:57;98271.72;;;-3.31;100.00
11001;BME280;5553;48.506;8.870;2023-02-14T01:36:27;98272.72;;;-3.35;100.00
11001;BME280;5553;48.506;8.870;2023-02-14T01:39:00;98276.63;;;-3.47;100.00
11001;BME280;5553;48.506;8.870;2023-02-14T01:41:31;98277.78;;;-3.54;100.00
11001;BME280;5553;48.506;8.870;2023-02-14T01:44:02;98273.88;;;-3.64;100.00
11001;BME280;5553;48.506;8.870;2023-02-14T01:46:32;98275.41;;;-3.59;100.00
11001;BME280;5553;48.506;8.870;2023-02-14T01:49:03;98265.41;;;-3.90;100.00
11001;BME280;5553;48.506;8.870;2023-02-14T01:51:33;98274.25;;;-3.73;100.00
11001;BME280;5553;48.506;8.870;2023-02-14T01:54:07;98265.56;;;-3.93;100.00
11001;BME280;5553;48.506;8.870;2023-02-14T01:56:39;98259.78;;;-3.99;100.00
11001;BME280;5553;48.506;8.870;2023-02-14T01:59:11;98260.97;;;-4.08;100.00
11001;BME280;5553;48.506;8.870;2023-02-14T02:01:41;98260.84;;;-4.05;100.00
11001;BME280;5553;48.506;8.870;2023-02-14T02:04:14;98251.69;;;-4.12;100.00
11001;BME280;5553;48.506;8.870;2023-02-14T02:06:48;98258.47;;;-4.10;100.00
11001;BME280;5553;48.506;8.870;2023-02-14T02:09:22;98261.16;;;-4.13;100.00
11001;BME280;5553;48.506;8.870;2023-02-14T02:11:51;98262.06;;;-3.92;100.00
11001;BME280;5553;48.506;8.870;2023-02-14T02:14:21;98271.03;;;-3.78;100.00
11001;BME280;5553;48.506;8.870;2023-02-14T02:17:00;98267.75;;;-3.84;100.00
11001;BME280;5553;48.506;8.870;2023-02-14T02:23:15;98263.28;;;-3.78;100.00
11001;BME280;5553;48.506;8.870;2023-02-14T02:29:07;98252.91;;;-4.44;100.00
11001;BME280;5553;48.506;8.870;2023-02-14T02:32:19;98249.41;;;-4.43;100.00
11001;BME280;5553;48.506;8.870;2023-02-14T02:35:19;98258.41;;;-4.32;100.00
11001;BME280;5553;48.506;8.870;2023-02-14T02:38:00;98253.03;;;-4.25;100.00
11001;BME280;5553;48.506;8.870;2023-02-14T02:40:41;98257.19;;;-4.21;100.00
11001;BME280;5553;48.506;8.870;2023-02-14T02:43:24;98254.59;;;-4.21;100.00
11001;BME280;5553;48.506;8.870;2023-02-14T02:46:00;98256.88;;;-4.14;100.00
11001;BME280;5553;48.506;8.870;2023-02-14T02:48:46;98256.84;;;-4.12;100.00
11001;BME280;5553;48.506;8.870;2023-02-14T02:51:23;98249.00;;;-4.09;100.00
11001;BME280;5553;48.506;8.870;2023-02-14T02:54:13;98253.25;;;-4.08;100.00
11001;BME280;5553;48.506;8.870;2023-02-14T02:56:46;98256.03;;;-4.14;100.00
11001;BME280;5553;48.506;8.870;2023-02-14T02:59:20;98254.19;;;-4.11;100.00
11001;BME280;5553;48.506;8.870;2023-02-14T03:01:54;98262.03;;;-4.14;100.00
11001;BME280;5553;48.506;8.870;2023-02-14T03:04:25;98255.44;;;-4.21;100.00
11001;BME280;5553;48.506;8.870;2023-02-14T03:07:09;98251.00;;;-4.17;100.00
11001;BME280;5553;48.506;8.870;2023-02-14T03:09:52;98243.94;;;-4.12;100.00
11001;BME280;5553;48.506;8.870;2023-02-14T03:12:48;98243.34;;;-4.19;100.00
11001;BME280;5553;48.506;8.870;2023-02-14T03:15:31;98247.53;;;-4.16;100.00
11001;BME280;5553;48.506;8.870;2023-02-14T03:18:07;98246.44;;;-4.11;100.00
11001;BME280;5553;48.506;8.870;2023-02-14T03:20:45;98241.06;;;-4.26;100.00
11001;BME280;5553;48.506;8.870;2023-02-14T03:23:19;98252.59;;;-4.13;100.00
11001;BME280;5553;48.506;8.870;2023-02-14T03:25:55;98247.78;;;-4.22;100.00
11001;BME280;5553;48.506;8.870;2023-02-14T03:28:32;98250.38;;;-4.24;100.00
11001;BME280;5553;48.506;8.870;2023-02-14T03:31:12;98250.88;;;-4.14;100.00
11001;BME280;5553;48.506;8.870;2023-02-14T03:33:49;98241.41;;;-4.14;100.00
11001;BME280;5553;48.506;8.870;2023-02-14T03:36:24;98244.47;;;-4.04;100.00
11001;BME280;5553;48.506;8.870;2023-02-14T03:39:02;98245.63;;;-4.11;100.00
11001;BME280;5553;48.506;8.870;2023-02-14T03:41:36;98243.88;;;-4.11;100.00
11001;BME280;5553;48.506;8.870;2023-02-14T03:44:07;98242.75;;;-4.03;100.00
11001;BME280;5553;48.506;8.870;2023-02-14T03:46:40;98245.28;;;-4.02;100.00
11001;BME280;5553;48.506;8.870;2023-02-14T03:49:14;98245.00;;;-4.18;100.00
11001;BME280;5553;48.506;8.870;2023-02-14T03:51:47;98237.22;;;-4.16;100.00
11001;BME280;5553;48.506;8.870;2023-02-14T03:54:21;98237.13;;;-4.13;100.00
11001;BME280;5553;48.506;8.870;2023-02-14T03:56:55;98233.53;;;-4.09;100.00
11001;BME280;5553;48.506;8.870;2023-02-14T03:59:27;98233.28;;;-4.03;100.00
11001;BME280;5553;48.506;8.870;2023-02-14T04:02:00;98240.13;;;-4.02;100.00
11001;BME280;5553;48.506;8.870;2023-02-14T04:04:33;98241.63;;;-3.96;100.00
11001;BME280;5553;48.506;8.870;2023-02-14T04:07:08;98233.03;;;-3.97;100.00
11001;BME280;5553;48.506;8.870;2023-02-14T04:09:40;98243.13;;;-4.13;100.00
11001;BME280;5553;48.506;8.870;2023-02-14T04:12:08;98239.50;;;-4.09;100.00
11001;BME280;5553;48.506;8.870;2023-02-14T04:14:36;98246.22;;;-4.05;100.00
11001;BME280;5553;48.506;8.870;2023-02-14T04:17:05;98239.63;;;-4.12;100.00
11001;BME280;5553;48.506;8.870;2023-02-14T04:19:49;98236.22;;;-4.12;100.00
11001;BME280;5553;48.506;8.870;2023-02-14T04:22:17;98233.63;;;-4.12;100.00
11001;BME280;5553;48.506;8.870;2023-02-14T04:24:48;98227.41;;;-4.07;100.00
11001;BME280;5553;48.506;8.870;2023-02-14T04:27:16;98228.47;;;-4.12;100.00
11001;BME280;5553;48.506;8.870;2023-02-14T04:29:47;98237.16;;;-4.15;100.00
11001;BME280;5553;48.506;8.870;2023-02-14T04:32:18;98227.59;;;-4.35;100.00
11001;BME280;5553;48.506;8.870;2023-02-14T04:34:47;98229.44;;;-4.38;100.00
11001;BME280;5553;48.506;8.870;2023-02-14T04:37:17;98229.75;;;-4.46;100.00
11001;BME280;5553;48.506;8.870;2023-02-14T04:39:48;98232.38;;;-4.47;100.00
11001;BME280;5553;48.506;8.870;2023-02-14T04:42:17;98230.19;;;-4.58;100.00
11001;BME280;5553;48.506;8.870;2023-02-14T04:44:45;98237.59;;;-4.49;100.00
11001;BME280;5553;48.506;8.870;2023-02-14T04:47:13;98229.75;;;-4.46;100.00
11001;BME280;5553;48.506;8.870;2023-02-14T04:49:42;98224.41;;;-4.41;100.00
11001;BME280;5553;48.506;8.870;2023-02-14T04:52:10;98234.56;;;-4.37;100.00
11001;BME280;5553;48.506;8.870;2023-02-14T04:54:38;98223.94;;;-4.51;100.00
11001;BME280;5553;48.506;8.870;2023-02-14T04:57:09;98216.72;;;-4.65;100.00
11001;BME280;5553;48.506;8.870;2023-02-14T04:59:37;98235.41;;;-4.60;100.00
11001;BME280;5553;48.506;8.870;2023-02-14T05:02:06;98226.84;;;-4.60;100.00
11001;BME280;5553;48.506;8.870;2023-02-14T05:04:34;98225.28;;;-4.64;100.00
11001;BME280;5553;48.506;8.870;2023-02-14T05:07:02;98222.59;;;-4.61;100.00
11001;BME280;5553;48.506;8.870;2023-02-14T05:09:30;98227.97;;;-4.67;100.00
11001;BME280;5553;48.506;8.870;2023-02-14T05:11:59;98226.66;;;-4.56;100.00
11001;BME280;5553;48.506;8.870;2023-02-14T05:14:30;98230.06;;;-4.55;100.00
11001;BME280;5553;48.506;8.870;2023-02-14T05:16:58;98239.25;;;-4.48;100.00
11001;BME280;5553;48.506;8.870;2023-02-14T05:19:26;98226.03;;;-4.39;100.00
11001;BME280;5553;48.506;8.870;2023-02-14T05:21:54;98224.78;;;-4.29;100.00
11001;BME280;5553;48.506;8.870;2023-02-14T05:24:23;98224.22;;;-4.13;100.00
11001;BME280;5553;48.506;8.870;2023-02-14T05:26:51;98225.59;;;-4.26;100.00
11001;BME280;5553;48.506;8.870;2023-02-14T05:29:19;98226.38;;;-4.48;100.00
11001;BME280;5553;48.506;8.870;2023-02-14T05:31:50;98228.41;;;-4.56;100.00
11001;BME280;5553;48.506;8.870;2023-02-14T05:34:18;98227.13;;;-4.44;100.00
11001;BME280;5553;48.506;8.870;2023-02-14T05:36:47;98233.13;;;-4.44;100.00
11001;BME280;5553;48.506;8.870;2023-02-14T05:39:15;98227.97;;;-4.44;100.00
11001;BME280;5553;48.506;8.870;2023-02-14T05:41:43;98224.97;;;-4.33;100.00
11001;BME280;5553;48.506;8.870;2023-02-14T05:44:11;98232.75;;;-4.35;100.00
11001;BME280;5553;48.506;8.870;2023-02-14T05:46:40;98236.13;;;-4.56;100.00
11001;BME280;5553;48.506;8.870;2023-02-14T05:49:10;98248.91;;;-4.53;100.00
11001;BME280;5553;48.506;8.870;2023-02-14T05:51:39;98241.34;;;-4.58;100.00
11001;BME280;5553;48.506;8.870;2023-02-14T05:54:07;98242.19;;;-4.57;100.00
11001;BME280;5553;48.506;8.870;2023-02-14T05:56:35;98244.88;;;-4.60;100.00
11001;BME280;5553;48.506;8.870;2023-02-14T05:59:04;98244.88;;;-4.60;100.00
11001;BME280;5553;48.506;8.870;2023-02-14T06:01:32;98246.03;;;-4.69;100.00
11001;BME280;5553;48.506;8.870;2023-02-14T06:04:00;98239.69;;;-4.84;100.00
11001;BME280;5553;48.506;8.870;2023-02-14T06:06:31;98243.69;;;-4.75;100.00
11001;BME280;5553;48.506;8.870;2023-02-14T06:08:59;98240.16;;;-4.72;100.00
11001;BME280;5553;48.506;8.870;2023-02-14T06:11:28;98240.13;;;-4.96;100.00
11001;BME280;5553;48.506;8.870;2023-02-14T06:13:56;98248.09;;;-4.79;100.00
11001;BME280;5553;48.506;8.870;2023-02-14T06:16:24;98243.22;;;-4.86;100.00
11001;BME280;5553;48.506;8.870;2023-02-14T06:18:52;98244.53;;;-4.74;100.00
11001;BME280;5553;48.506;8.870;2023-02-14T06:21:21;98237.78;;;-4.79;100.00
11001;BME280;5553;48.506;8.870;2023-02-14T06:23:51;98236.13;;;-4.80;100.00
11001;BME280;5553;48.506;8.870;2023-02-14T06:26:20;98241.88;;;-4.73;100.00
11001;BME280;5553;48.506;8.870;2023-02-14T06:28:52;98240.25;;;-4.76;100.00
11001;BME280;5553;48.506;8.870;2023-02-14T06:31:20;98247.44;;;-4.84;100.00
11001;BME280;5553;48.506;8.870;2023-02-14T06:33:49;98249.56;;;-4.71;100.00
11001;BME280;5553;48.506;8.870;2023-02-14T06:36:18;98254.84;;;-4.74;100.00
11001;BME280;5553;48.506;8.870;2023-02-14T06:38:47;98258.16;;;-4.96;100.00
11001;BME280;5553;48.506;8.870;2023-02-14T06:41:18;98261.63;;;-4.97;100.00
11001;BME280;5553;48.506;8.870;2023-02-14T06:43:46;98256.31;;;-4.92;100.00
11001;BME280;5553;48.506;8.870;2023-02-14T06:46:15;98253.69;;;-4.91;100.00
11001;BME280;5553;48.506;8.870;2023-02-14T06:48:44;98256.81;;;-4.83;100.00
11001;BME280;5553;48.506;8.870;2023-02-14T06:51:12;98263.59;;;-4.80;100.00
11001;BME280;5553;48.506;8.870;2023-02-14T06:53:41;98260.50;;;-4.90;100.00
11001;BME280;5553;48.506;8.870;2023-02-14T06:56:09;98256.00;;;-4.83;100.00
11001;BME280;5553;48.506;8.870;2023-02-14T06:58:40;98263.00;;;-4.63;100.00
11001;BME280;5553;48.506;8.870;2023-02-14T07:01:08;98259.22;;;-4.53;100.00
11001;BME280;5553;48.506;8.870;2023-02-14T07:03:36;98260.34;;;-4.37;100.00
11001;BME280;5553;48.506;8.870;2023-02-14T07:06:04;98260.56;;;-4.43;100.00
11001;BME280;5553;48.506;8.870;2023-02-14T07:08:33;98264.16;;;-4.47;100.00
11001;BME280;5553;48.506;8.870;2023-02-14T07:11:01;98251.69;;;-4.36;100.00
11001;BME280;5553;48.506;8.870;2023-02-14T07:13:29;98267.81;;;-4.07;100.00
11001;BME280;5553;48.506;8.870;2023-02-14T07:16:00;98262.00;;;-3.90;100.00
11001;BME280;5553;48.506;8.870;2023-02-14T07:18:28;98267.53;;;-3.77;100.00
11001;BME280;5553;48.506;8.870;2023-02-14T07:20:57;98257.81;;;-3.71;100.00
11001;BME280;5553;48.506;8.870;2023-02-14T07:23:25;98253.72;;;-3.54;100.00
11001;BME280;5553;48.506;8.870;2023-02-14T07:25:54;98248.63;;;-3.36;100.00
11001;BME280;5553;48.506;8.870;2023-02-14T07:28:22;98251.44;;;-3.20;100.00
11001;BME280;5553;48.506;8.870;2023-02-14T07:30:50;98248.06;;;-3.01;100.00
11001;BME280;5553;48.506;8.870;2023-02-14T07:33:21;98235.03;;;-2.98;100.00
11001;BME280;5553;48.506;8.870;2023-02-14T07:35:49;98226.69;;;-2.84;100.00
11001;BME280;5553;48.506;8.870;2023-02-14T07:38:17;98224.75;;;-2.79;100.00
11001;BME280;5553;48.506;8.870;2023-02-14T07:40:46;98222.81;;;-2.36;100.00
11001;BME280;5553;48.506;8.870;2023-02-14T07:43:14;98218.72;;;-2.22;100.00
11001;BME280;5553;48.506;8.870;2023-02-14T07:45:42;98216.28;;;-1.88;100.00
11001;BME280;5553;48.506;8.870;2023-02-14T07:48:10;98216.16;;;-1.68;100.00
11001;BME280;5553;48.506;8.870;2023-02-14T07:50:41;98211.78;;;-1.49;100.00
11001;BME280;5553;48.506;8.870;2023-02-14T07:53:10;98204.25;;;-1.18;100.00
11001;BME280;5553;48.506;8.870;2023-02-14T07:55:38;98202.72;;;-0.72;100.00
11001;BME280;5553;48.506;8.870;2023-02-14T07:58:06;98197.22;;;-0.66;100.00
11001;BME280;5553;48.506;8.870;2023-02-14T08:00:34;98188.63;;;-0.35;100.00
11001;BME280;5553;48.506;8.870;2023-02-14T08:03:03;98187.66;;;-0.16;100.00
11001;BME280;5553;48.506;8.870;2023-02-14T08:05:31;98178.59;;;-0.09;100.00
11001;BME280;5553;48.506;8.870;2023-02-14T08:08:02;98186.19;;;0.26;100.00
11001;BME280;5553;48.506;8.870;2023-02-14T08:10:30;98177.91;;;0.19;100.00
11001;BME280;5553;48.506;8.870;2023-02-14T08:12:58;98175.63;;;0.13;100.00
11001;BME280;5553;48.506;8.870;2023-02-14T08:15:29;98179.56;;;0.20;100.00
11001;BME280;5553;48.506;8.870;2023-02-14T08:18:10;98181.72;;;0.88;100.00
11001;BME280;5553;48.506;8.870;2023-02-14T08:20:39;98178.78;;;1.37;100.00
11001;BME280;5553;48.506;8.870;2023-02-14T08:23:10;98167.44;;;1.09;100.00
11001;BME280;5553;48.506;8.870;2023-02-14T08:25:39;98164.88;;;0.65;100.00
11001;BME280;5553;48.506;8.870;2023-02-14T08:28:07;98168.13;;;1.13;100.00
11001;BME280;5553;48.506;8.870;2023-02-14T08:30:36;98160.09;;;1.59;100.00
11001;BME280;5553;48.506;8.870;2023-02-14T08:33:05;98155.41;;;1.78;100.00
11001;BME280;5553;48.506;8.870;2023-02-14T08:35:34;98148.88;;;1.44;100.00
11001;BME280;5553;48.506;8.870;2023-02-14T08:38:03;98152.91;;;2.04;100.00
11001;BME280;5553;48.506;8.870;2023-02-14T08:40:34;98143.31;;;2.31;100.00
11001;BME280;5553;48.506;8.870;2023-02-14T08:43:03;98137.03;;;2.87;100.00
11001;BME280;5553;48.506;8.870;2023-02-14T08:45:32;98124.94;;;2.20;100.00
11001;BME280;5553;48.506;8.870;2023-02-14T08:48:01;98133.06;;;2.68;100.00
11001;BME280;5553;48.506;8.870;2023-02-14T08:50:30;98122.31;;;2.60;100.00
11001;BME280;5553;48.506;8.870;2023-02-14T08:52:58;98128.16;;;2.89;100.00
11001;BME280;5553;48.506;8.870;2023-02-14T08:55:26;98114.38;;;2.49;100.00
11001;BME280;5553;48.506;8.870;2023-02-14T08:57:57;98115.13;;;2.51;100.00
11001;BME280;5553;48.506;8.870;2023-02-14T09:00:26;98128.91;;;3.66;100.00
11001;BME280;5553;48.506;8.870;2023-02-14T09:02:54;98106.53;;;3.38;100.00
11001;BME280;5553;48.506;8.870;2023-02-14T09:05:22;98105.81;;;3.36;100.00
11001;BME280;5553;48.506;8.870;2023-02-14T09:07:51;98102.38;;;3.23;100.00
11001;BME280;5553;48.506;8.870;2023-02-14T09:10:20;98118.41;;;4.03;100.00
11001;BME280;5553;48.506;8.870;2023-02-14T09:12:49;98102.72;;;3.55;100.00
11001;BME280;5553;48.506;8.870;2023-02-14T09:15:20;98108.34;;;4.10;100.00
11001;BME280;5553;48.506;8.870;2023-02-14T09:17:48;98114.88;;;4.04;100.00
11001;BME280;5553;48.506;8.870;2023-02-14T09:20:16;98108.47;;;5.12;100.00
11001;BME280;5553;48.506;8.870;2023-02-14T09:22:45;98097.06;;;5.36;100.00
11001;BME280;5553;48.506;8.870;2023-02-14T09:25:13;98083.28;;;5.34;100.00
11001;BME280;5553;48.506;8.870;2023-02-14T09:27:41;98093.47;;;4.81;100.00
11001;BME280;5553;48.506;8.870;2023-02-14T09:30:11;98091.38;;;5.31;100.00
11001;BME280;5553;48.506;8.870;2023-02-14T09:32:42;98080.94;;;5.74;100.00
11001;BME280;5553;48.506;8.870;2023-02-14T09:35:10;98063.50;;;5.30;99.59
11001;BME280;5553;48.506;8.870;2023-02-14T09:37:39;98070.28;;;6.09;100.00
11001;BME280;5553;48.506;8.870;2023-02-14T09:40:20;98056.81;;;5.59;98.72
11001;BME280;5553;48.506;8.870;2023-02-14T09:42:58;98050.81;;;5.14;99.60
11001;BME280;5553;48.506;8.870;2023-02-14T09:45:28;98056.28;;;5.11;99.48
11001;BME280;5553;48.506;8.870;2023-02-14T09:48:03;98065.13;;;6.19;99.30
11001;BME280;5553;48.506;8.870;2023-02-14T09:50:36;98048.69;;;5.74;96.81
11001;BME280;5553;48.506;8.870;2023-02-14T09:53:16;98040.88;;;6.69;94.95
11001;BME280;5553;48.506;8.870;2023-02-14T09:55:51;98057.44;;;7.90;93.63
11001;BME280;5553;48.506;8.870;2023-02-14T09:58:25;98034.91;;;6.87;93.24
11001;BME280;5553;48.506;8.870;2023-02-14T10:00:59;98026.47;;;6.63;93.37
11001;BME280;5553;48.506;8.870;2023-02-14T10:04:04;98045.28;;;7.29;94.56
11001;BME280;5553;48.506;8.870;2023-02-14T10:06:47;98011.59;;;6.94;90.04
11001;BME280;5553;48.506;8.870;2023-02-14T10:09:30;98018.59;;;7.34;89.50
11001;BME280;5553;48.506;8.870;2023-02-14T10:12:00;98018.97;;;7.70;90.08
11001;BME280;5553;48.506;8.870;2023-02-14T10:14:31;98031.16;;;8.48;90.12
11001;BME280;5553;48.506;8.870;2023-02-14T10:17:07;97992.25;;;8.23;85.22
11001;BME280;5553;48.506;8.870;2023-02-14T10:19:42;97996.13;;;8.38;85.90
11001;BME280;5553;48.506;8.870;2023-02-14T10:22:14;97982.13;;;8.47;84.13
11001;BME280;5553;48.506;8.870;2023-02-14T10:24:47;98006.69;;;9.13;85.78
11001;BME280;5553;48.506;8.870;2023-02-14T10:27:28;97987.13;;;8.31;85.33
11001;BME280;5553;48.506;8.870;2023-02-14T10:29:57;98009.00;;;9.71;83.60
11001;BME280;5553;48.506;8.870;2023-02-14T10:32:30;97984.25;;;9.09;82.00
11001;BME280;5553;48.506;8.870;2023-02-14T10:35:15;97969.97;;;8.84;80.94
11001;BME280;5553;48.506;8.870;2023-02-14T10:37:57;97998.63;;;9.42;82.51
11001;BME280;5553;48.506;8.870;2023-02-14T10:40:53;97946.13;;;8.85;78.74
11001;BME280;5553;48.506;8.870;2023-02-14T10:43:32;97989.63;;;9.80;80.60
11001;BME280;5553;48.506;8.870;2023-02-14T10:46:07;97974.75;;;9.43;79.82
11001;BME280;5553;48.506;8.870;2023-02-14T10:48:47;97955.94;;;8.56;79.53
11001;BME280;5553;48.506;8.870;2023-02-14T10:51:23;97983.22;;;9.83;80.82
11001;BME280;5553;48.506;8.870;2023-02-14T10:54:08;97940.53;;;9.79;76.90
11001;BME280;5553;48.506;8.870;2023-02-14T10:56:43;97938.63;;;9.89;76.53
11001;BME280;5553;48.506;8.870;2023-02-14T10:59:17;97933.59;;;10.22;75.88
11001;BME280;5553;48.506;8.870;2023-02-14T11:01:48;97956.41;;;11.84;74.53
11001;BME280;5553;48.506;8.870;2023-02-14T11:04:19;97933.06;;;10.62;74.89
11001;BME280;5553;48.506;8.870;2023-02-14T11:06:51;97919.91;;;11.13;72.82
11001;BME280;5553;48.506;8.870;2023-02-14T11:09:20;97919.44;;;10.49;73.27
11001;BME280;5553;48.506;8.870;2023-02-14T11:11:51;97933.44;;;11.85;73.24
11001;BME280;5553;48.506;8.870;2023-02-14T11:14:23;97910.72;;;11.58;71.45
11001;BME280;5553;48.506;8.870;2023-02-14T11:16:53;97899.22;;;11.00;70.25
11001;BME280;5553;48.506;8.870;2023-02-14T11:19:25;97919.31;;;11.35;71.17
11001;BME280;5553;48.506;8.870;2023-02-14T11:21:57;97906.19;;;11.18;70.80
11001;BME280;5553;48.506;8.870;2023-02-14T11:24:30;97910.13;;;13.16;68.71
11001;BME280;5553;48.506;8.870;2023-02-14T11:27:00;97898.31;;;12.96;67.82
11001;BME280;5553;48.506;8.870;2023-02-14T11:29:32;97862.66;;;11.79;66.65
11001;BME280;5553;48.506;8.870;2023-02-14T11:32:07;97895.09;;;12.61;68.16
11001;BME280;5553;48.506;8.870;2023-02-14T11:34:37;97875.31;;;13.27;65.24
11001;BME280;5553;48.506;8.870;2023-02-14T11:37:24;97860.84;;;12.99;64.40
11001;BME280;5553;48.506;8.870;2023-02-14T11:39:55;97840.16;;;12.63;64.22
11001;BME280;5553;48.506;8.870;2023-02-14T11:42:38;97842.31;;;11.14;67.20
11001;BME280;5553;48.506;8.870;2023-02-14T11:45:26;97822.16;;;12.03;64.00
11001;BME280;5553;48.506;8.870;2023-02-14T11:48:17;97846.44;;;13.33;63.86
11001;BME280;5553;48.506;8.870;2023-02-14T11:50:53;97838.69;;;12.92;63.15
11001;BME280;5553;48.506;8.870;2023-02-14T11:53:27;97817.72;;;13.13;61.64
11001;BME280;5553;48.506;8.870;2023-02-14T11:55:57;97833.09;;;13.18;61.57
11001;BME280;5553;48.506;8.870;2023-02-14T11:58:29;97798.16;;;12.60;60.60
11001;BME280;5553;48.506;8.870;2023-02-14T12:00:59;97865.63;;;14.48;61.84
11001;BME280;5553;48.506;8.870;2023-02-14T12:03:33;97806.41;;;13.50;59.93
11001;BME280;5553;48.506;8.870;2023-02-14T12:06:04;97812.16;;;13.31;60.35
11001;BME280;5553;48.506;8.870;2023-02-14T12:08:35;97814.00;;;14.06;59.15
11001;BME280;5553;48.506;8.870;2023-02-14T12:11:18;97825.06;;;14.84;58.35
11001;BME280;5553;48.506;8.870;2023-02-14T12:14:51;97781.06;;;14.30;56.36
11001;BME280;5553;48.506;8.870;2023-02-14T12:17:29;97792.75;;;15.02;56.70
11001;BME280;5553;48.506;8.870;2023-02-14T12:20:07;97809.91;;;15.63;56.93
11001;BME280;5553;48.506;8.870;2023-02-14T12:22:39;97767.88;;;14.52;55.39
11001;BME280;5553;48.506;8.870;2023-02-14T12:25:16;97763.00;;;14.11;56.46
11001;BME280;5553;48.506;8.870;2023-02-14T12:27:48;97768.03;;;14.65;55.17
11001;BME280;5553;48.506;8.870;2023-02-14T12:30:19;97740.44;;;13.85;55.39
11001;BME280;5553;48.506;8.870;2023-02-14T12:32:50;97763.09;;;14.98;54.04
11001;BME280;5553;48.506;8.870;2023-02-14T12:35:28;97741.53;;;14.72;52.98
11001;BME280;5553;48.506;8.870;2023-02-14T12:38:08;97779.84;;;16.26;53.39
11001;BME280;5553;48.506;8.870;2023-02-14T12:40:47;97771.53;;;15.73;54.74
11001;BME280;5553;48.506;8.870;2023-02-14T12:43:30;97761.16;;;15.35;54.94
11001;BME280;5553;48.506;8.870;2023-02-14T12:46:12;97763.34;;;15.74;53.99
11001;BME280;5553;48.506;8.870;2023-02-14T12:49:00;97732.47;;;15.02;53.46
11001;BME280;5553;48.506;8.870;2023-02-14T12:51:35;97738.91;;;15.36;53.17
11001;BME280;5553;48.506;8.870;2023-02-14T12:54:23;97734.22;;;15.16;53.27
11001;BME280;5553;48.506;8.870;2023-02-14T12:57:02;97715.94;;;14.64;52.89
11001;BME280;5553;48.506;8.870;2023-02-14T12:59:43;97727.81;;;14.89;52.82
11001;BME280;5553;48.506;8.870;2023-02-14T13:05:18;97722.25;;;15.77;52.00
11001;BME280;5553;48.506;8.870;2023-02-14T13:07:59;97689.25;;;15.15;50.81
11001;BME280;5553;48.506;8.870;2023-02-14T13:10:42;97657.22;;;14.22;50.67
11001;BME280;5553;48.506;8.870;2023-02-14T13:13:21;97715.09;;;15.77;51.09
11001;BME280;5553;48.506;8.870;2023-02-14T13:15:55;97699.25;;;15.41;51.39
11001;BME280;5553;48.506;8.870;2023-02-14T13:18:34;97712.50;;;15.91;51.55
11001;BME280;5553;48.506;8.870;2023-02-14T13:21:05;97677.94;;;14.49;52.06
11001;BME280;5553;48.506;8.870;2023-02-14T13:23:39;97707.97;;;14.64;54.31
11001;BME280;5553;48.506;8.870;2023-02-14T13:26:11;97753.63;;;15.88;54.92
11001;BME280;5553;48.506;8.870;2023-02-14T13:28:48;97769.06;;;16.41;55.61
11001;BME280;5553;48.506;8.870;2023-02-14T13:31:18;97740.44;;;15.52;55.69
11001;BME280;5553;48.506;8.870;2023-02-14T13:33:49;97733.28;;;15.74;54.48
11001;BME280;5553;48.506;8.870;2023-02-14T13:36:18;97721.44;;;14.84;56.18
11001;BME280;5553;48.506;8.870;2023-02-14T13:38:50;97758.47;;;15.78;57.28
11001;BME280;5553;48.506;8.870;2023-02-14T13:41:21;97738.13;;;15.21;57.22
11001;BME280;5553;48.506;8.870;2023-02-14T13:43:54;97730.47;;;15.32;56.89